createdAt,value
2019-05-11T00:00:30.287Z,11.34
2019-05-11T00:05:34.729Z,11.20
2019-05-11T00:10:39.165Z,11.30
2019-05-11T00:15:43.525Z,11.20
2019-05-11T00:20:47.941Z,11.03
2019-05-11T00:25:52.387Z,11.02
2019-05-11T00:30:56.921Z,11.01
2019-05-11T00:36:01.790Z,10.92
2019-05-11T00:41:06.220Z,10.86
2019-05-11T00:46:10.614Z,10.84
2019-05-11T00:51:14.894Z,10.84
2019-05-11T00:56:19.323Z,10.72
2019-05-11T01:01:24.192Z,10.63
2019-05-11T01:06:28.481Z,10.69
2019-05-11T01:11:32.847Z,10.65
2019-05-11T01:16:37.118Z,10.70
2019-05-11T01:21:41.526Z,10.67
2019-05-11T01:26:45.961Z,10.61
2019-05-11T01:31:50.241Z,10.48
2019-05-11T01:36:54.494Z,10.40
2019-05-11T01:41:58.744Z,10.25
2019-05-11T01:47:02.984Z,10.20
2019-05-11T01:52:07.259Z,10.14
2019-05-11T01:57:11.676Z,10.05
2019-05-11T02:02:15.945Z,10.02
2019-05-11T02:07:20.349Z,9.94
2019-05-11T02:12:24.609Z,9.91
2019-05-11T02:17:29.001Z,9.88
2019-05-11T02:22:33.264Z,9.83
2019-05-11T02:27:37.696Z,9.76
2019-05-11T02:33:00.884Z,9.72
2019-05-11T02:38:05.232Z,9.67
2019-05-11T02:43:09.479Z,9.63
2019-05-11T02:48:13.728Z,9.55
2019-05-11T02:53:18.569Z,9.56
2019-05-11T02:58:22.796Z,9.53
2019-05-11T03:03:27.037Z,9.50
2019-05-11T03:08:31.266Z,9.45
2019-05-11T03:13:35.491Z,9.52
2019-05-11T03:18:39.721Z,9.53
2019-05-11T03:23:43.957Z,9.56
2019-05-11T03:28:48.189Z,9.55
2019-05-11T03:33:52.433Z,9.49
2019-05-11T03:38:56.680Z,9.53
2019-05-11T03:44:00.931Z,9.56
2019-05-11T03:49:05.179Z,9.65
2019-05-11T03:54:09.408Z,9.73
2019-05-11T03:59:13.653Z,9.81
2019-05-11T04:04:17.884Z,9.87
2019-05-11T04:09:22.129Z,9.91
2019-05-11T04:14:26.382Z,9.94
2019-05-11T04:19:30.719Z,10.05
2019-05-11T04:24:34.979Z,10.11
2019-05-11T04:29:39.440Z,10.07
2019-05-11T04:34:43.782Z,10.30
2019-05-11T04:39:48.169Z,10.39
2019-05-11T04:44:52.759Z,10.51
2019-05-11T04:49:57.158Z,10.72
2019-05-11T04:55:01.394Z,10.74
2019-05-11T05:00:06.469Z,10.78
2019-05-11T05:05:10.919Z,10.87
2019-05-11T05:10:19.854Z,10.87
2019-05-11T05:15:21.287Z,10.96
2019-05-11T05:20:25.532Z,11.00
2019-05-11T05:25:29.966Z,11.14
2019-05-11T05:30:34.505Z,11.32
2019-05-11T05:35:38.751Z,11.48
2019-05-11T05:40:42.992Z,11.67
2019-05-11T05:45:47.335Z,11.86
2019-05-11T05:50:51.567Z,11.97
2019-05-11T05:55:55.801Z,12.12
2019-05-11T06:01:00.136Z,12.20
2019-05-11T06:06:04.369Z,12.41
2019-05-11T06:11:08.648Z,12.42
2019-05-11T06:16:12.880Z,12.50
2019-05-11T06:21:17.106Z,12.60
2019-05-11T06:26:21.340Z,12.83
2019-05-11T06:31:25.587Z,12.86
2019-05-11T06:36:29.821Z,13.10
2019-05-11T06:41:34.227Z,13.31
2019-05-11T06:46:38.629Z,13.19
2019-05-11T06:51:42.857Z,13.39
2019-05-11T06:56:47.210Z,13.59
2019-05-11T07:01:51.546Z,13.62
2019-05-11T07:06:55.835Z,13.77
2019-05-11T07:12:00.131Z,13.97
2019-05-11T07:17:04.491Z,14.32
2019-05-11T07:22:08.723Z,14.28
2019-05-11T07:27:13.052Z,14.54
2019-05-11T07:32:25.108Z,14.78
2019-05-11T07:37:24.326Z,14.65
2019-05-11T07:42:28.861Z,14.53
2019-05-11T07:47:33.261Z,14.90
2019-05-11T07:52:37.972Z,15.07
2019-05-11T07:57:42.399Z,15.24
2019-05-11T08:02:48.030Z,15.31
2019-05-11T08:07:52.407Z,15.30
2019-05-11T08:12:58.749Z,15.47
2019-05-11T08:18:02.649Z,15.48
2019-05-11T08:23:08.986Z,15.61
2019-05-11T08:28:12.923Z,15.85
2019-05-11T08:33:18.155Z,16.00
2019-05-11T08:38:22.628Z,16.03
2019-05-11T08:43:28.521Z,16.03
2019-05-11T08:48:32.906Z,16.16
2019-05-11T08:53:38.700Z,16.17
2019-05-11T08:58:43.200Z,16.34
2019-05-11T09:03:48.027Z,16.42
2019-05-11T09:08:52.235Z,16.74
2019-05-11T09:13:57.872Z,17.38
2019-05-11T09:19:02.377Z,17.41
2019-05-11T09:24:08.412Z,17.42
2019-05-11T09:29:12.622Z,16.95
2019-05-11T09:34:18.078Z,17.01
2019-05-11T09:39:22.559Z,17.16
2019-05-11T09:44:28.798Z,17.58
2019-05-11T09:49:43.967Z,17.80
2019-05-11T09:54:38.768Z,18.26
2019-05-11T09:59:43.099Z,18.15
2019-05-11T10:04:48.401Z,17.47
2019-05-11T10:09:52.724Z,17.65
2019-05-11T10:14:59.085Z,17.65
2019-05-11T10:20:03.066Z,17.75
2019-05-11T10:25:08.998Z,17.43
2019-05-11T10:30:13.703Z,17.55
2019-05-11T10:35:18.537Z,17.69
2019-05-11T10:40:22.974Z,17.85
2019-05-11T10:45:28.561Z,17.73
2019-05-11T10:50:32.949Z,17.94
2019-05-11T10:55:38.621Z,18.22
2019-05-11T11:00:43.176Z,18.26
2019-05-11T11:05:48.788Z,18.20
2019-05-11T11:10:53.205Z,18.34
2019-05-11T11:15:59.020Z,18.78
2019-05-11T11:21:03.436Z,18.63
2019-05-11T11:26:08.328Z,18.77
2019-05-11T11:31:12.647Z,18.69
2019-05-11T11:36:17.962Z,18.47
2019-05-11T11:41:22.332Z,18.25
2019-05-11T11:46:27.800Z,18.30
2019-05-11T11:51:32.106Z,18.39
2019-05-11T11:56:38.004Z,18.42
2019-05-11T12:01:43.732Z,18.24
2019-05-11T12:06:49.094Z,18.27
2019-05-11T12:11:53.428Z,18.10
2019-05-11T12:17:06.988Z,18.44
2019-05-11T12:22:03.652Z,18.18
2019-05-11T12:27:07.894Z,18.00
2019-05-11T12:32:18.579Z,17.65
2019-05-11T12:37:22.920Z,17.15
2019-05-11T12:42:28.419Z,16.93
2019-05-11T12:47:32.700Z,16.59
2019-05-11T12:52:38.334Z,16.72
2019-05-11T12:57:42.695Z,16.43
2019-05-11T13:02:48.509Z,16.35
2019-05-11T13:07:52.998Z,16.42
2019-05-11T13:12:58.171Z,16.52
2019-05-11T13:18:02.592Z,16.31
2019-05-11T13:23:07.992Z,16.28
2019-05-11T13:28:12.466Z,16.51
2019-05-11T13:33:18.788Z,16.70
2019-05-11T13:38:22.805Z,16.57
2019-05-11T13:43:28.057Z,16.60
2019-05-11T13:48:32.598Z,16.58
2019-05-11T13:53:37.643Z,16.44
2019-05-11T13:58:42.498Z,16.43
2019-05-11T14:03:48.438Z,16.25
2019-05-11T14:08:52.720Z,16.12
2019-05-11T14:13:58.463Z,16.04
2019-05-11T14:19:02.817Z,16.12
2019-05-11T14:24:07.781Z,16.02
2019-05-11T14:29:12.307Z,16.06
2019-05-11T14:34:18.124Z,16.02
2019-05-11T14:39:23.109Z,16.07
2019-05-11T14:44:28.541Z,15.93
2019-05-11T14:49:33.002Z,15.87
2019-05-11T14:54:38.211Z,15.79
2019-05-11T14:59:42.680Z,15.81
2019-05-11T15:04:48.391Z,15.74
2019-05-11T15:09:52.795Z,15.73
2019-05-11T15:14:59.025Z,15.78
2019-05-11T15:20:03.047Z,15.80
2019-05-11T15:25:08.972Z,15.75
2019-05-11T15:30:14.959Z,15.61
2019-05-11T15:35:19.269Z,15.36
2019-05-11T15:40:23.908Z,15.40
2019-05-11T15:45:28.238Z,15.38
2019-05-11T15:50:32.474Z,15.16
2019-05-11T15:55:39.362Z,15.06
2019-05-11T16:00:42.703Z,14.79
2019-05-11T16:05:47.934Z,14.71
2019-05-11T16:10:52.299Z,14.54
2019-05-11T16:15:57.761Z,14.52
2019-05-11T16:21:02.315Z,14.40
2019-05-11T16:26:08.539Z,14.27
2019-05-11T16:31:12.525Z,14.21
2019-05-11T16:36:17.981Z,14.20
2019-05-11T16:41:22.486Z,14.08
2019-05-11T16:46:28.440Z,14.04
2019-05-11T16:51:32.862Z,14.08
2019-05-11T16:56:38.254Z,13.92
2019-05-11T17:01:42.788Z,13.98
2019-05-11T17:06:48.679Z,13.93
2019-05-11T17:11:53.138Z,13.90
2019-05-11T17:16:58.557Z,13.86
2019-05-11T17:22:02.931Z,13.75
2019-05-11T17:27:08.813Z,13.74
2019-05-11T17:32:17.761Z,13.66
2019-05-11T17:37:22.212Z,13.77
2019-05-11T17:42:26.499Z,13.76
2019-05-11T17:47:30.793Z,13.66
2019-05-11T17:52:35.105Z,13.57
2019-05-11T17:57:39.359Z,13.59
2019-05-11T18:02:43.650Z,13.56
2019-05-11T18:07:47.945Z,13.50
2019-05-11T18:12:52.340Z,13.49
2019-05-11T18:17:58.798Z,13.32
2019-05-11T18:23:03.112Z,13.28
2019-05-11T18:28:07.570Z,13.14
2019-05-11T18:33:12.010Z,13.15
2019-05-11T18:38:17.847Z,13.15
2019-05-11T18:43:22.257Z,13.03
2019-05-11T18:48:28.665Z,12.89
2019-05-11T18:53:32.609Z,12.85
2019-05-11T18:58:38.355Z,12.82
2019-05-11T19:03:42.809Z,12.83
2019-05-11T19:08:47.880Z,12.90
2019-05-11T19:13:53.286Z,12.86
2019-05-11T19:18:58.607Z,12.81
2019-05-11T19:24:06.032Z,12.73
2019-05-11T19:29:10.036Z,12.68
2019-05-11T19:34:14.516Z,12.64
2019-05-11T19:39:19.402Z,12.56
2019-05-11T19:44:23.941Z,12.48
2019-05-11T19:49:28.287Z,12.34
2019-05-11T19:54:32.588Z,12.27
2019-05-11T19:59:38.703Z,12.12
2019-05-11T20:04:43.260Z,12.08
2019-05-11T20:09:47.573Z,12.00
2019-05-11T20:14:51.845Z,11.99
2019-05-11T20:19:58.117Z,11.97
2019-05-11T20:25:02.258Z,11.95
2019-05-11T20:30:08.601Z,11.99
2019-05-11T20:35:13.544Z,11.91
2019-05-11T20:40:18.463Z,11.77
2019-05-11T20:45:23.017Z,11.73
2019-05-11T20:50:27.289Z,11.69
2019-05-11T20:55:31.542Z,11.68
2019-05-11T21:00:38.199Z,11.57
2019-05-11T21:05:41.980Z,11.53
2019-05-11T21:10:48.790Z,11.50
2019-05-11T21:15:52.426Z,11.48
2019-05-11T21:20:57.713Z,11.46
2019-05-11T21:26:02.138Z,11.41
2019-05-11T21:31:08.046Z,11.40
2019-05-11T21:36:12.538Z,11.34
2019-05-11T21:41:16.806Z,11.30
2019-05-11T21:46:21.069Z,11.30
2019-05-11T21:51:25.494Z,11.33
2019-05-11T21:56:29.946Z,11.28
2019-05-11T22:01:34.381Z,11.27
2019-05-11T22:06:39.209Z,11.29
2019-05-11T22:11:43.587Z,11.20
2019-05-11T22:16:48.077Z,11.17
2019-05-11T22:21:52.316Z,11.12
2019-05-11T22:26:57.487Z,11.01
2019-05-11T22:32:02.518Z,10.98
2019-05-11T22:37:08.654Z,11.00
2019-05-11T22:42:12.754Z,10.89
2019-05-11T22:47:17.811Z,10.88
2019-05-11T22:52:35.430Z,10.88
2019-05-11T22:57:28.277Z,10.79
2019-05-11T23:02:32.517Z,10.79
2019-05-11T23:07:37.673Z,10.76
2019-05-11T23:12:42.734Z,10.74
2019-05-11T23:17:46.972Z,10.76
2019-05-11T23:22:58.017Z,10.74
2019-05-11T23:27:58.811Z,10.73
2019-05-11T23:33:03.132Z,10.70
2019-05-11T23:38:07.374Z,10.68
2019-05-11T23:43:11.608Z,10.57
2019-05-11T23:48:15.835Z,10.48
2019-05-11T23:53:20.069Z,10.33
2019-05-11T23:58:24.287Z,10.32
